| Date | Time | Temp. (oF) | Dew Point (oF) | Rel. Hum. (%) | Press. (in.) | Wind Dir. | Wind Speed (mph) | Hourly Rainfall (in.) |
|
|---|---|---|---|---|---|---|---|---|---|
| 1 | 06/02 | 00:00 | 72 | 54 | 54 | 29.66 | WSW | 3 | 0.00 |
| 2 | 06/01 | 23:00 | 73 | 56 | 56 | 29.66 | WSW | 2 | 0.00 |
| 3 | 06/01 | 22:00 | 76 | 55 | 50 | 29.66 | SSW | 2 | 0.00 |
| 4 | 06/01 | 21:00 | 79 | 58 | 49 | 29.65 | WSW | 2 | 0.00 |
| 5 | 06/01 | 20:00 | 83 | 57 | 43 | 29.62 | S | 2 | 0.00 |
| 6 | 06/01 | 19:00 | 85 | 57 | 40 | 29.63 | SW | 2 | 0.00 |
| 7 | 06/01 | 18:00 | 86 | 59 | 41 | 29.63 | SW | 4 | 0.00 |
| 8 | 06/01 | 17:00 | 86 | 61 | 44 | 29.64 | W | 3 | 0.00 |
| 9 | 06/01 | 16:00 | 86 | 60 | 43 | 29.65 | SW | 9 | 0.00 |
| 10 | 06/01 | 15:00 | 85 | 61 | 45 | 29.67 | S | 9 | 0.00 |
| 11 | 06/01 | 14:00 | 84 | 58 | 43 | 29.70 | SW | 5 | 0.00 |
| 12 | 06/01 | 13:00 | 84 | 60 | 46 | 29.72 | NW | 7 | 0.00 |
| 13 | 06/01 | 12:00 | 82 | 60 | 49 | 29.74 | SW | 6 | 0.00 |
| 14 | 06/01 | 11:00 | 80 | 60 | 51 | 29.76 | SW | 3 | 0.00 |
| 15 | 06/01 | 10:00 | 77 | 63 | 64 | 29.77 | WSW | 7 | 0.00 |
| 16 | 06/01 | 09:00 | 74 | 67 | 81 | 29.77 | S | 2 | 0.00 |
| 17 | 06/01 | 08:00 | 68 | 68 | 100 | 29.78 | S | 4 | 0.00 |
| 18 | 06/01 | 07:00 | 64 | 63 | 98 | 29.77 | W | 0 | 0.00 |
| 19 | 06/01 | 06:00 | 64 | 62 | 96 | 29.76 | WSW | 0 | 0.00 |
| 20 | 06/01 | 05:00 | 66 | 64 | 95 | 29.74 | WSW | 0 | 0.00 |
| 21 | 06/01 | 04:00 | 67 | 65 | 95 | 29.72 | WSW | 0 | 0.00 |
| 22 | 06/01 | 03:00 | 68 | 65 | 93 | 29.72 | WSW | 1 | 0.00 |
| 23 | 06/01 | 02:00 | 69 | 66 | 92 | 29.71 | WNW | 2 | 0.00 |
| 24 | 06/01 | 01:00 | 70 | 66 | 89 | 29.69 | W | 3 | 0.00 |